sensor_id;sensor_type;location;lat;lon;timestamp;pressure;altitude;pressure_sealevel;temperature;humidity
49627;BME280;35527;54.616;39.786;2023-06-22T00:01:30;100107.78;;;11.08;96.67
49627;BME280;35527;54.616;39.786;2023-06-22T00:04:34;100131.44;;;11.22;96.38
49627;BME280;35527;54.616;39.786;2023-06-22T00:07:36;100138.22;;;11.24;96.79
49627;BME280;35527;54.616;39.786;2023-06-22T00:10:42;100125.56;;;11.17;97.07
49627;BME280;35527;54.616;39.786;2023-06-22T00:13:45;100147.69;;;11.25;96.99
49627;BME280;35527;54.616;39.786;2023-06-22T00:16:48;100155.59;;;11.22;97.30
49627;BME280;35527;54.616;39.786;2023-06-22T00:19:52;100115.13;;;10.95;96.89
49627;BME280;35527;54.616;39.786;2023-06-22T00:22:59;100158.53;;;11.13;96.91
49627;BME280;35527;54.616;39.786;2023-06-22T00:26:02;100152.53;;;11.11;96.99
49627;BME280;35527;54.616;39.786;2023-06-22T00:29:06;100135.59;;;11.02;97.12
49627;BME280;35527;54.616;39.786;2023-06-22T00:32:11;100138.16;;;11.02;97.06
49627;BME280;35527;54.616;39.786;2023-06-22T00:35:18;100133.25;;;10.95;96.90
49627;BME280;35527;54.616;39.786;2023-06-22T00:38:21;100142.88;;;10.91;97.53
49627;BME280;35527;54.616;39.786;2023-06-22T00:41:24;100146.47;;;10.87;98.23
49627;BME280;35527;54.616;39.786;2023-06-22T00:44:30;100145.47;;;10.91;98.65
49627;BME280;35527;54.616;39.786;2023-06-22T00:47:34;100150.69;;;10.90;99.35
49627;BME280;35527;54.616;39.786;2023-06-22T00:50:43;100128.50;;;10.82;98.76
49627;BME280;35527;54.616;39.786;2023-06-22T00:53:45;100141.28;;;10.87;99.65
49627;BME280;35527;54.616;39.786;2023-06-22T00:56:48;100151.59;;;10.89;99.74
49627;BME280;35527;54.616;39.786;2023-06-22T00:59:54;100140.72;;;10.79;100.00
49627;BME280;35527;54.616;39.786;2023-06-22T01:02:58;100118.88;;;10.61;99.54
49627;BME280;35527;54.616;39.786;2023-06-22T01:06:10;100143.84;;;10.89;99.12
49627;BME280;35527;54.616;39.786;2023-06-22T01:09:23;100163.97;;;11.05;98.60
49627;BME280;35527;54.616;39.786;2023-06-22T01:12:45;100169.03;;;11.09;98.69
49627;BME280;35527;54.616;39.786;2023-06-22T01:16:05;100167.06;;;11.15;97.68
49627;BME280;35527;54.616;39.786;2023-06-22T01:22:22;100162.41;;;11.25;97.72
49627;BME280;35527;54.616;39.786;2023-06-22T01:28:48;100149.50;;;11.23;97.39
49627;BME280;35527;54.616;39.786;2023-06-22T01:31:51;100165.50;;;11.35;97.62
49627;BME280;35527;54.616;39.786;2023-06-22T01:34:58;100148.38;;;11.31;97.07
49627;BME280;35527;54.616;39.786;2023-06-22T01:38:07;100156.53;;;11.43;96.17
49627;BME280;35527;54.616;39.786;2023-06-22T01:41:11;100171.75;;;11.53;96.57
49627;BME280;35527;54.616;39.786;2023-06-22T01:44:15;100170.63;;;11.60;96.52
49627;BME280;35527;54.616;39.786;2023-06-22T01:47:24;100148.41;;;11.53;96.36
49627;BME280;35527;54.616;39.786;2023-06-22T01:50:28;100150.88;;;11.56;95.82
49627;BME280;35527;54.616;39.786;2023-06-22T01:53:36;100173.03;;;11.64;96.16
49627;BME280;35527;54.616;39.786;2023-06-22T01:56:41;100171.78;;;11.75;95.62
49627;BME280;35527;54.616;39.786;2023-06-22T02:00:00;100172.19;;;11.87;95.17
49627;BME280;35527;54.616;39.786;2023-06-22T02:03:21;100183.13;;;11.95;94.33
49627;BME280;35527;54.616;39.786;2023-06-22T02:06:31;100175.00;;;12.05;93.86
49627;BME280;35527;54.616;39.786;2023-06-22T02:09:41;100155.31;;;11.99;93.82
49627;BME280;35527;54.616;39.786;2023-06-22T02:12:46;100154.88;;;12.10;93.46
49627;BME280;35527;54.616;39.786;2023-06-22T02:15:52;100173.22;;;12.27;93.50
49627;BME280;35527;54.616;39.786;2023-06-22T02:18:55;100156.91;;;12.24;92.75
49627;BME280;35527;54.616;39.786;2023-06-22T02:21:59;100174.16;;;12.47;93.05
49627;BME280;35527;54.616;39.786;2023-06-22T02:25:01;100181.69;;;12.53;92.09
49627;BME280;35527;54.616;39.786;2023-06-22T02:28:05;100179.56;;;12.62;90.77
49627;BME280;35527;54.616;39.786;2023-06-22T02:31:07;100158.84;;;12.61;90.60
49627;BME280;35527;54.616;39.786;2023-06-22T02:34:10;100177.75;;;12.85;90.09
49627;BME280;35527;54.616;39.786;2023-06-22T02:37:22;100177.38;;;12.94;89.10
49627;BME280;35527;54.616;39.786;2023-06-22T02:40:29;100160.94;;;12.94;87.76
49627;BME280;35527;54.616;39.786;2023-06-22T02:43:34;100148.94;;;13.10;85.35
49627;BME280;35527;54.616;39.786;2023-06-22T02:46:37;100183.81;;;13.45;84.15
49627;BME280;35527;54.616;39.786;2023-06-22T02:49:44;100180.72;;;13.56;82.04
49627;BME280;35527;54.616;39.786;2023-06-22T02:52:48;100185.63;;;13.81;80.85
49627;BME280;35527;54.616;39.786;2023-06-22T02:55:53;100188.00;;;14.05;79.69
49627;BME280;35527;54.616;39.786;2023-06-22T02:58:55;100172.81;;;14.14;78.66
49627;BME280;35527;54.616;39.786;2023-06-22T03:02:12;100182.47;;;14.30;77.94
49627;BME280;35527;54.616;39.786;2023-06-22T03:05:16;100183.31;;;14.48;76.71
49627;BME280;35527;54.616;39.786;2023-06-22T03:08:23;100185.06;;;14.66;74.79
49627;BME280;35527;54.616;39.786;2023-06-22T03:11:27;100175.78;;;14.78;71.80
49627;BME280;35527;54.616;39.786;2023-06-22T03:14:32;100174.69;;;14.99;70.30
49627;BME280;35527;54.616;39.786;2023-06-22T03:17:39;100183.84;;;15.24;66.46
49627;BME280;35527;54.616;39.786;2023-06-22T03:20:44;100201.00;;;15.61;63.65
49627;BME280;35527;54.616;39.786;2023-06-22T03:23:46;100185.72;;;15.71;62.35
49627;BME280;35527;54.616;39.786;2023-06-22T03:26:51;100195.75;;;15.94;61.60
49627;BME280;35527;54.616;39.786;2023-06-22T03:29:57;100189.84;;;16.23;60.25
49627;BME280;35527;54.616;39.786;2023-06-22T03:33:03;100181.59;;;16.44;59.10
49627;BME280;35527;54.616;39.786;2023-06-22T03:36:07;100183.78;;;16.36;63.61
49627;BME280;35527;54.616;39.786;2023-06-22T03:39:11;100181.19;;;16.36;67.49
49627;BME280;35527;54.616;39.786;2023-06-22T03:42:16;100186.81;;;16.44;70.76
49627;BME280;35527;54.616;39.786;2023-06-22T03:45:18;100167.88;;;16.71;70.40
49627;BME280;35527;54.616;39.786;2023-06-22T03:48:24;100189.88;;;17.83;68.67
49627;BME280;35527;54.616;39.786;2023-06-22T03:51:28;100181.41;;;20.59;57.33
49627;BME280;35527;54.616;39.786;2023-06-22T03:54:33;100177.44;;;22.76;49.56
49627;BME280;35527;54.616;39.786;2023-06-22T03:57:36;100178.94;;;23.81;45.97
49627;BME280;35527;54.616;39.786;2023-06-22T04:00:39;100174.09;;;24.64;43.31
49627;BME280;35527;54.616;39.786;2023-06-22T04:03:46;100186.66;;;25.09;42.54
49627;BME280;35527;54.616;39.786;2023-06-22T04:06:52;100170.75;;;25.84;40.28
49627;BME280;35527;54.616;39.786;2023-06-22T04:09:56;100177.97;;;26.27;39.60
49627;BME280;35527;54.616;39.786;2023-06-22T04:13:00;100167.84;;;26.67;38.44
49627;BME280;35527;54.616;39.786;2023-06-22T04:16:04;100163.81;;;27.15;37.98
49627;BME280;35527;54.616;39.786;2023-06-22T04:19:08;100168.16;;;28.17;36.61
49627;BME280;35527;54.616;39.786;2023-06-22T04:22:18;100190.78;;;28.05;36.50
49627;BME280;35527;54.616;39.786;2023-06-22T04:25:21;100181.31;;;28.27;36.18
49627;BME280;35527;54.616;39.786;2023-06-22T04:28:27;100179.84;;;26.97;37.35
49627;BME280;35527;54.616;39.786;2023-06-22T04:31:29;100185.84;;;26.55;38.28
49627;BME280;35527;54.616;39.786;2023-06-22T04:34:35;100178.19;;;25.98;39.48
49627;BME280;35527;54.616;39.786;2023-06-22T04:37:38;100182.72;;;25.60;40.42
49627;BME280;35527;54.616;39.786;2023-06-22T04:40:43;100177.75;;;25.48;40.22
49627;BME280;35527;54.616;39.786;2023-06-22T04:43:47;100157.16;;;25.42;40.26
49627;BME280;35527;54.616;39.786;2023-06-22T04:47:01;100162.59;;;26.13;38.55
49627;BME280;35527;54.616;39.786;2023-06-22T04:50:08;100171.13;;;26.61;37.51
49627;BME280;35527;54.616;39.786;2023-06-22T05:54:28;100120.91;;;30.33;22.66
49627;BME280;35527;54.616;39.786;2023-06-22T05:57:33;100125.69;;;31.34;21.49
49627;BME280;35527;54.616;39.786;2023-06-22T06:00:36;100120.03;;;32.02;21.13
49627;BME280;35527;54.616;39.786;2023-06-22T06:03:38;100115.94;;;31.84;21.33
49627;BME280;35527;54.616;39.786;2023-06-22T06:06:43;100137.13;;;31.43;21.82
49627;BME280;35527;54.616;39.786;2023-06-22T06:09:53;100129.59;;;31.02;21.88
49627;BME280;35527;54.616;39.786;2023-06-22T06:12:56;100141.06;;;31.32;21.14
49627;BME280;35527;54.616;39.786;2023-06-22T06:15:58;100100.72;;;32.06;20.64
49627;BME280;35527;54.616;39.786;2023-06-22T06:19:01;100119.03;;;32.03;20.36
49627;BME280;35527;54.616;39.786;2023-06-22T06:22:07;100122.28;;;32.20;20.33
49627;BME280;35527;54.616;39.786;2023-06-22T06:25:10;100120.31;;;31.34;21.26
49627;BME280;35527;54.616;39.786;2023-06-22T06:28:19;100121.97;;;31.50;20.89
49627;BME280;35527;54.616;39.786;2023-06-22T06:31:21;100114.16;;;30.60;21.54
49627;BME280;35527;54.616;39.786;2023-06-22T06:34:27;100114.59;;;30.11;22.53
49627;BME280;35527;54.616;39.786;2023-06-22T06:37:30;100122.59;;;29.88;23.15
49627;BME280;35527;54.616;39.786;2023-06-22T06:40:33;100102.97;;;29.10;24.06
49627;BME280;35527;54.616;39.786;2023-06-22T06:43:36;100099.13;;;28.65;24.21
49627;BME280;35527;54.616;39.786;2023-06-22T06:46:43;100095.13;;;29.16;23.97
49627;BME280;35527;54.616;39.786;2023-06-22T06:49:46;100113.19;;;29.37;23.70
49627;BME280;35527;54.616;39.786;2023-06-22T06:52:49;100113.38;;;28.88;24.16
49627;BME280;35527;54.616;39.786;2023-06-22T06:55:52;100087.69;;;29.04;23.28
49627;BME280;35527;54.616;39.786;2023-06-22T06:58:59;100104.56;;;29.90;22.94
49627;BME280;35527;54.616;39.786;2023-06-22T07:02:02;100117.31;;;29.48;22.59
49627;BME280;35527;54.616;39.786;2023-06-22T07:05:06;100115.88;;;28.82;23.85
49627;BME280;35527;54.616;39.786;2023-06-22T07:08:08;100108.31;;;29.10;23.48
49627;BME280;35527;54.616;39.786;2023-06-22T07:11:13;100117.44;;;29.55;23.05
49627;BME280;35527;54.616;39.786;2023-06-22T07:14:16;100104.94;;;30.77;21.99
49627;BME280;35527;54.616;39.786;2023-06-22T07:17:19;100114.31;;;30.58;21.63
49627;BME280;35527;54.616;39.786;2023-06-22T07:20:23;100108.69;;;29.69;22.64
49627;BME280;35527;54.616;39.786;2023-06-22T07:23:28;100108.59;;;29.62;22.97
49627;BME280;35527;54.616;39.786;2023-06-22T07:26:32;100068.78;;;30.22;22.17
49627;BME280;35527;54.616;39.786;2023-06-22T07:29:35;100079.06;;;30.92;20.91
49627;BME280;35527;54.616;39.786;2023-06-22T07:32:39;100097.09;;;30.46;21.48
49627;BME280;35527;54.616;39.786;2023-06-22T07:35:42;100092.06;;;30.81;21.57
49627;BME280;35527;54.616;39.786;2023-06-22T07:38:45;100105.31;;;30.74;21.31
49627;BME280;35527;54.616;39.786;2023-06-22T07:41:50;100082.53;;;28.94;23.37
49627;BME280;35527;54.616;39.786;2023-06-22T07:44:53;100087.16;;;28.03;24.21
49627;BME280;35527;54.616;39.786;2023-06-22T07:48:00;100098.34;;;28.95;23.37
49627;BME280;35527;54.616;39.786;2023-06-22T07:51:03;100103.09;;;28.61;24.06
49627;BME280;35527;54.616;39.786;2023-06-22T07:54:06;100089.41;;;27.57;25.08
49627;BME280;35527;54.616;39.786;2023-06-22T07:57:10;100095.88;;;27.04;26.09
49627;BME280;35527;54.616;39.786;2023-06-22T08:00:14;100082.59;;;27.12;26.65
49627;BME280;35527;54.616;39.786;2023-06-22T08:03:18;100081.13;;;26.32;27.58
49627;BME280;35527;54.616;39.786;2023-06-22T08:06:21;100086.09;;;25.73;28.36
49627;BME280;35527;54.616;39.786;2023-06-22T08:09:28;100077.22;;;25.64;28.74
49627;BME280;35527;54.616;39.786;2023-06-22T08:12:31;100086.91;;;25.55;28.52
49627;BME280;35527;54.616;39.786;2023-06-22T08:15:34;100064.44;;;25.04;29.63
49627;BME280;35527;54.616;39.786;2023-06-22T08:18:37;100075.16;;;25.03;28.97
49627;BME280;35527;54.616;39.786;2023-06-22T08:21:41;100084.22;;;25.37;28.25
49627;BME280;35527;54.616;39.786;2023-06-22T08:24:44;100074.16;;;25.13;27.87
49627;BME280;35527;54.616;39.786;2023-06-22T08:27:47;100059.50;;;25.09;28.49
49627;BME280;35527;54.616;39.786;2023-06-22T08:30:53;100073.28;;;24.85;29.45
49627;BME280;35527;54.616;39.786;2023-06-22T08:34:01;100048.19;;;24.89;28.84
49627;BME280;35527;54.616;39.786;2023-06-22T08:37:08;100058.06;;;24.40;29.76
49627;BME280;35527;54.616;39.786;2023-06-22T08:40:11;100051.81;;;24.88;29.46
49627;BME280;35527;54.616;39.786;2023-06-22T08:43:15;100005.78;;;24.99;28.29
49627;BME280;35527;54.616;39.786;2023-06-22T08:46:18;100040.72;;;25.12;29.21
49627;BME280;35527;54.616;39.786;2023-06-22T08:49:25;100058.03;;;25.52;28.95
49627;BME280;35527;54.616;39.786;2023-06-22T08:52:28;100056.97;;;25.63;28.86
49627;BME280;35527;54.616;39.786;2023-06-22T08:55:33;100061.38;;;27.21;27.74
49627;BME280;35527;54.616;39.786;2023-06-22T08:58:37;100039.06;;;28.21;25.37
49627;BME280;35527;54.616;39.786;2023-06-22T09:01:40;100049.31;;;27.43;26.72
49627;BME280;35527;54.616;39.786;2023-06-22T09:04:43;100047.66;;;26.91;27.84
49627;BME280;35527;54.616;39.786;2023-06-22T09:07:46;100041.25;;;26.67;27.71
49627;BME280;35527;54.616;39.786;2023-06-22T09:10:53;100039.97;;;26.01;28.69
49627;BME280;35527;54.616;39.786;2023-06-22T09:13:56;100054.91;;;25.84;29.26
49627;BME280;35527;54.616;39.786;2023-06-22T09:17:00;100050.63;;;25.74;29.15
49627;BME280;35527;54.616;39.786;2023-06-22T09:20:03;100033.00;;;25.82;28.96
49627;BME280;35527;54.616;39.786;2023-06-22T09:23:09;100027.47;;;26.20;28.52
49627;BME280;35527;54.616;39.786;2023-06-22T09:26:13;100044.88;;;26.66;28.64
49627;BME280;35527;54.616;39.786;2023-06-22T09:29:16;100019.22;;;27.26;27.74
49627;BME280;35527;54.616;39.786;2023-06-22T09:32:19;100035.00;;;26.85;27.74
49627;BME280;35527;54.616;39.786;2023-06-22T09:35:26;100031.66;;;26.22;30.10
49627;BME280;35527;54.616;39.786;2023-06-22T09:38:30;100035.72;;;25.73;29.32
49627;BME280;35527;54.616;39.786;2023-06-22T09:41:35;100030.47;;;25.45;29.67
49627;BME280;35527;54.616;39.786;2023-06-22T09:44:38;100025.03;;;25.82;28.93
49627;BME280;35527;54.616;39.786;2023-06-22T09:47:43;100006.09;;;26.47;27.80
49627;BME280;35527;54.616;39.786;2023-06-22T09:50:47;100028.44;;;27.05;27.02
49627;BME280;35527;54.616;39.786;2023-06-22T09:53:51;99999.28;;;27.30;26.57
49627;BME280;35527;54.616;39.786;2023-06-22T09:56:55;100005.19;;;27.07;26.26
49627;BME280;35527;54.616;39.786;2023-06-22T09:59:59;100012.94;;;27.43;26.15
49627;BME280;35527;54.616;39.786;2023-06-22T10:03:05;99997.22;;;26.99;26.33
49627;BME280;35527;54.616;39.786;2023-06-22T10:06:08;99978.63;;;26.57;26.88
49627;BME280;35527;54.616;39.786;2023-06-22T10:09:11;99973.56;;;26.45;27.62
49627;BME280;35527;54.616;39.786;2023-06-22T10:12:14;99976.13;;;27.06;26.57
49627;BME280;35527;54.616;39.786;2023-06-22T10:15:16;99964.41;;;27.49;25.90
49627;BME280;35527;54.616;39.786;2023-06-22T10:18:20;99970.25;;;27.45;25.64
49627;BME280;35527;54.616;39.786;2023-06-22T10:21:25;99988.22;;;27.83;26.27
49627;BME280;35527;54.616;39.786;2023-06-22T10:24:30;99958.13;;;27.83;25.83
49627;BME280;35527;54.616;39.786;2023-06-22T10:27:34;99967.06;;;27.49;25.72
49627;BME280;35527;54.616;39.786;2023-06-22T10:30:38;99946.03;;;26.89;27.17
49627;BME280;35527;54.616;39.786;2023-06-22T10:33:42;99961.88;;;26.38;27.88
49627;BME280;35527;54.616;39.786;2023-06-22T10:36:47;99972.13;;;25.81;28.25
49627;BME280;35527;54.616;39.786;2023-06-22T10:39:52;99932.34;;;25.19;29.24
49627;BME280;35527;54.616;39.786;2023-06-22T10:42:55;99944.50;;;26.10;28.53
49627;BME280;35527;54.616;39.786;2023-06-22T10:46:01;99947.72;;;26.21;27.69
49627;BME280;35527;54.616;39.786;2023-06-22T10:49:06;99945.50;;;26.09;28.39
49627;BME280;35527;54.616;39.786;2023-06-22T10:52:13;99959.34;;;26.55;28.62
49627;BME280;35527;54.616;39.786;2023-06-22T10:55:16;99954.75;;;26.65;27.99
49627;BME280;35527;54.616;39.786;2023-06-22T10:58:23;99950.56;;;26.54;27.66
49627;BME280;35527;54.616;39.786;2023-06-22T11:01:26;99930.09;;;26.89;27.23
49627;BME280;35527;54.616;39.786;2023-06-22T11:04:37;99938.44;;;27.10;27.36
49627;BME280;35527;54.616;39.786;2023-06-22T11:07:43;99928.16;;;27.15;26.53
49627;BME280;35527;54.616;39.786;2023-06-22T11:10:46;99933.50;;;27.24;26.03
49627;BME280;35527;54.616;39.786;2023-06-22T11:13:52;99925.94;;;26.86;26.46
49627;BME280;35527;54.616;39.786;2023-06-22T11:16:56;99917.94;;;26.36;27.33
49627;BME280;35527;54.616;39.786;2023-06-22T11:19:58;99926.97;;;25.91;28.79
49627;BME280;35527;54.616;39.786;2023-06-22T11:23:03;99937.28;;;25.94;28.82
49627;BME280;35527;54.616;39.786;2023-06-22T11:26:06;99912.34;;;25.87;29.03
49627;BME280;35527;54.616;39.786;2023-06-22T11:29:14;99920.53;;;25.75;29.55
49627;BME280;35527;54.616;39.786;2023-06-22T11:32:23;99920.59;;;26.01;28.92
49627;BME280;35527;54.616;39.786;2023-06-22T11:35:29;99915.78;;;26.05;28.96
49627;BME280;35527;54.616;39.786;2023-06-22T11:38:32;99928.75;;;25.64;29.80
49627;BME280;35527;54.616;39.786;2023-06-22T11:41:38;99907.31;;;24.86;30.23
49627;BME280;35527;54.616;39.786;2023-06-22T11:44:42;99912.41;;;24.42;31.80
49627;BME280;35527;54.616;39.786;2023-06-22T11:47:46;99909.13;;;24.30;31.88
49627;BME280;35527;54.616;39.786;2023-06-22T11:50:48;99922.03;;;24.43;32.23
49627;BME280;35527;54.616;39.786;2023-06-22T11:53:53;99908.91;;;24.51;31.81
49627;BME280;35527;54.616;39.786;2023-06-22T11:56:56;99909.75;;;24.52;31.94
49627;BME280;35527;54.616;39.786;2023-06-22T11:59:59;99893.78;;;24.34;32.18
49627;BME280;35527;54.616;39.786;2023-06-22T12:03:02;99893.09;;;24.32;32.02
49627;BME280;35527;54.616;39.786;2023-06-22T12:06:06;99869.41;;;24.67;31.67
49627;BME280;35527;54.616;39.786;2023-06-22T12:09:09;99864.81;;;25.05;30.20
49627;BME280;35527;54.616;39.786;2023-06-22T12:12:16;99853.59;;;25.11;30.31
49627;BME280;35527;54.616;39.786;2023-06-22T12:15:20;99877.56;;;25.20;29.53
49627;BME280;35527;54.616;39.786;2023-06-22T12:18:24;99873.13;;;25.10;29.61
49627;BME280;35527;54.616;39.786;2023-06-22T12:21:27;99878.66;;;24.81;29.64
49627;BME280;35527;54.616;39.786;2023-06-22T12:24:31;99878.25;;;24.58;30.02
49627;BME280;35527;54.616;39.786;2023-06-22T12:27:35;99874.31;;;24.62;30.63
49627;BME280;35527;54.616;39.786;2023-06-22T12:30:44;99874.63;;;24.77;30.61
49627;BME280;35527;54.616;39.786;2023-06-22T12:33:46;99867.47;;;25.23;29.71
49627;BME280;35527;54.616;39.786;2023-06-22T12:36:51;99862.31;;;25.39;28.94
49627;BME280;35527;54.616;39.786;2023-06-22T12:39:56;99837.63;;;25.39;29.38
49627;BME280;35527;54.616;39.786;2023-06-22T12:43:01;99836.00;;;25.72;29.04
49627;BME280;35527;54.616;39.786;2023-06-22T12:46:05;99838.47;;;25.66;28.56
49627;BME280;35527;54.616;39.786;2023-06-22T12:49:09;99804.69;;;25.42;28.42
49627;BME280;35527;54.616;39.786;2023-06-22T12:52:13;99833.94;;;25.58;28.34
49627;BME280;35527;54.616;39.786;2023-06-22T12:55:21;99832.72;;;25.44;28.89
49627;BME280;35527;54.616;39.786;2023-06-22T12:58:25;99840.53;;;25.54;28.98
49627;BME280;35527;54.616;39.786;2023-06-22T13:01:28;99824.00;;;25.60;28.71
49627;BME280;35527;54.616;39.786;2023-06-22T13:04:32;99827.53;;;25.95;28.21
49627;BME280;35527;54.616;39.786;2023-06-22T13:07:36;99817.25;;;25.92;28.53
49627;BME280;35527;54.616;39.786;2023-06-22T13:10:39;99821.47;;;25.50;28.17
49627;BME280;35527;54.616;39.786;2023-06-22T13:13:44;99816.81;;;25.52;29.08
49627;BME280;35527;54.616;39.786;2023-06-22T13:16:50;99794.50;;;25.29;28.92
49627;BME280;35527;54.616;39.786;2023-06-22T13:19:54;99809.00;;;25.43;29.02
49627;BME280;35527;54.616;39.786;2023-06-22T13:22:59;99811.53;;;25.52;29.11
49627;BME280;35527;54.616;39.786;2023-06-22T13:26:02;99807.53;;;25.74;28.96
49627;BME280;35527;54.616;39.786;2023-06-22T13:29:06;99815.34;;;25.76;28.90
49627;BME280;35527;54.616;39.786;2023-06-22T13:32:12;99818.16;;;25.48;29.10
49627;BME280;35527;54.616;39.786;2023-06-22T13:35:15;99795.28;;;25.21;29.72
49627;BME280;35527;54.616;39.786;2023-06-22T13:38:20;99788.56;;;24.91;30.46
49627;BME280;35527;54.616;39.786;2023-06-22T13:41:23;99806.78;;;24.76;30.42
49627;BME280;35527;54.616;39.786;2023-06-22T13:44:26;99784.09;;;24.56;30.62
49627;BME280;35527;54.616;39.786;2023-06-22T13:47:32;99786.66;;;24.65;30.35
49627;BME280;35527;54.616;39.786;2023-06-22T13:50:37;99767.94;;;24.59;30.35
49627;BME280;35527;54.616;39.786;2023-06-22T13:53:41;99773.81;;;24.88;30.46
49627;BME280;35527;54.616;39.786;2023-06-22T13:56:44;99782.19;;;25.20;30.22
49627;BME280;35527;54.616;39.786;2023-06-22T13:59:46;99770.06;;;25.17;29.17
49627;BME280;35527;54.616;39.786;2023-06-22T14:02:49;99766.81;;;25.23;29.41
49627;BME280;35527;54.616;39.786;2023-06-22T14:05:52;99774.50;;;25.34;29.35
49627;BME280;35527;54.616;39.786;2023-06-22T14:08:58;99769.06;;;25.18;29.67
49627;BME280;35527;54.616;39.786;2023-06-22T14:12:05;99750.94;;;25.05;30.28
49627;BME280;35527;54.616;39.786;2023-06-22T14:15:09;99749.59;;;25.01;30.31
49627;BME280;35527;54.616;39.786;2023-06-22T14:18:12;99750.00;;;25.40;29.96
49627;BME280;35527;54.616;39.786;2023-06-22T14:21:15;99745.94;;;25.54;29.17
49627;BME280;35527;54.616;39.786;2023-06-22T14:24:19;99753.88;;;25.20;30.61
49627;BME280;35527;54.616;39.786;2023-06-22T14:27:24;99766.75;;;25.15;30.15
49627;BME280;35527;54.616;39.786;2023-06-22T14:30:28;99758.53;;;25.26;30.44
49627;BME280;35527;54.616;39.786;2023-06-22T14:33:34;99758.97;;;25.39;30.05
49627;BME280;35527;54.616;39.786;2023-06-22T14:36:37;99752.25;;;25.53;30.71
49627;BME280;35527;54.616;39.786;2023-06-22T14:39:40;99728.41;;;25.53;30.12
49627;BME280;35527;54.616;39.786;2023-06-22T14:42:43;99744.53;;;25.34;29.79
49627;BME280;35527;54.616;39.786;2023-06-22T14:45:47;99745.63;;;25.05;30.61
49627;BME280;35527;54.616;39.786;2023-06-22T14:48:51;99726.47;;;24.67;31.17
49627;BME280;35527;54.616;39.786;2023-06-22T14:51:55;99722.03;;;24.50;31.04
49627;BME280;35527;54.616;39.786;2023-06-22T14:54:59;99744.84;;;24.51;31.34
49627;BME280;35527;54.616;39.786;2023-06-22T14:58:03;99736.38;;;24.65;31.52
49627;BME280;35527;54.616;39.786;2023-06-22T15:01:06;99740.09;;;24.72;31.45
49627;BME280;35527;54.616;39.786;2023-06-22T15:04:12;99750.19;;;24.95;30.84
49627;BME280;35527;54.616;39.786;2023-06-22T15:07:17;99727.50;;;24.92;30.93
49627;BME280;35527;54.616;39.786;2023-06-22T15:10:22;99722.34;;;24.91;31.02
49627;BME280;35527;54.616;39.786;2023-06-22T15:13:25;99740.97;;;24.99;30.87
49627;BME280;35527;54.616;39.786;2023-06-22T15:16:30;99731.81;;;24.93;30.27
49627;BME280;35527;54.616;39.786;2023-06-22T15:19:34;99720.78;;;24.80;30.46
49627;BME280;35527;54.616;39.786;2023-06-22T15:22:38;99727.13;;;24.69;30.90
49627;BME280;35527;54.616;39.786;2023-06-22T15:25:44;99725.19;;;24.71;31.26
49627;BME280;35527;54.616;39.786;2023-06-22T15:28:48;99724.66;;;24.68;31.04
49627;BME280;35527;54.616;39.786;2023-06-22T15:31:52;99729.13;;;24.67;31.24
49627;BME280;35527;54.616;39.786;2023-06-22T15:34:57;99703.28;;;24.43;30.81
49627;BME280;35527;54.616;39.786;2023-06-22T15:38:00;99699.59;;;24.26;30.69
49627;BME280;35527;54.616;39.786;2023-06-22T15:41:04;99724.34;;;24.35;31.02
49627;BME280;35527;54.616;39.786;2023-06-22T15:44:08;99698.78;;;24.26;30.61
49627;BME280;35527;54.616;39.786;2023-06-22T15:47:14;99723.00;;;24.49;30.22
49627;BME280;35527;54.616;39.786;2023-06-22T15:50:17;99729.34;;;24.56;30.31
49627;BME280;35527;54.616;39.786;2023-06-22T15:53:22;99723.50;;;24.35;33.51
49627;BME280;35527;54.616;39.786;2023-06-22T15:56:24;99706.06;;;23.78;38.75
49627;BME280;35527;54.616;39.786;2023-06-22T15:59:29;99736.53;;;23.35;40.50
49627;BME280;35527;54.616;39.786;2023-06-22T16:02:31;99733.38;;;22.83;42.38
49627;BME280;35527;54.616;39.786;2023-06-22T16:05:34;99737.56;;;22.27;43.04
49627;BME280;35527;54.616;39.786;2023-06-22T16:08:39;99736.50;;;21.59;45.05
49627;BME280;35527;54.616;39.786;2023-06-22T16:11:45;99728.00;;;21.25;45.40
49627;BME280;35527;54.616;39.786;2023-06-22T16:14:49;99751.38;;;21.18;45.44
49627;BME280;35527;54.616;39.786;2023-06-22T16:17:52;99735.06;;;20.82;45.97
49627;BME280;35527;54.616;39.786;2023-06-22T16:20:54;99748.31;;;20.60;46.25
49627;BME280;35527;54.616;39.786;2023-06-22T16:24:01;99747.22;;;20.19;47.38
49627;BME280;35527;54.616;39.786;2023-06-22T16:27:04;99752.72;;;19.59;48.94
49627;BME280;35527;54.616;39.786;2023-06-22T16:30:09;99773.09;;;19.22;50.29
49627;BME280;35527;54.616;39.786;2023-06-22T16:33:12;99759.22;;;18.98;51.19
49627;BME280;35527;54.616;39.786;2023-06-22T16:36:17;99759.50;;;18.82;52.18
49627;BME280;35527;54.616;39.786;2023-06-22T16:39:20;99758.03;;;18.54;52.50
49627;BME280;35527;54.616;39.786;2023-06-22T16:42:23;99746.44;;;18.45;52.47
49627;BME280;35527;54.616;39.786;2023-06-22T16:45:26;99764.91;;;18.43;52.83
49627;BME280;35527;54.616;39.786;2023-06-22T16:48:33;99754.69;;;18.04;53.57
49627;BME280;35527;54.616;39.786;2023-06-22T16:51:38;99755.13;;;17.97;53.75
49627;BME280;35527;54.616;39.786;2023-06-22T16:54:41;99756.78;;;17.98;53.26
49627;BME280;35527;54.616;39.786;2023-06-22T16:57:52;99739.09;;;17.89;53.16
49627;BME280;35527;54.616;39.786;2023-06-22T17:01:00;99790.19;;;17.56;54.33
49627;BME280;35527;54.616;39.786;2023-06-22T17:04:07;99762.47;;;17.41;54.98
49627;BME280;35527;54.616;39.786;2023-06-22T17:07:14;99756.59;;;17.25;56.07